Time;durP1;ratioP1;P1;durP2;ratioP2;P2;SDS_P1;SDS_P2;PMS_P1;PMS_P2;Temp;Humidity;BMP_temperature;BMP_pressure;BME280_temperature;BME280_humidity;BME280_pressure;Samples;Min_cycle;Max_cycle;Signal;HPM_P1;HPM_P2
2021/05/19 00:01:17;;;;;;;30.70;16.92;;;;;;;;;;5051777;28;20444;-62
2021/05/19 00:03:43;;;;;;;29.13;15.65;;;;;;;;;;5050594;28;20025;-61
2021/05/19 00:06:09;;;;;;;26.90;16.15;;;;;;;;;;5067349;28;20024;-61
2021/05/19 00:08:35;;;;;;;30.38;17.48;;;;;;;;;;5051424;28;20048;-61
2021/05/19 00:11:01;;;;;;;31.67;18.65;;;;;;;;;;5051333;28;20432;-61
2021/05/19 00:13:29;;;;;;;30.92;18.20;;;;;;;;;;5051933;28;20025;-60
2021/05/19 00:15:55;;;;;;;32.05;18.02;;;;;;;;;;5067068;28;20020;-62
2021/05/19 00:18:21;;;;;;;33.45;18.63;;;;;;;;;;5051840;28;20025;-61
2021/05/19 00:20:47;;;;;;;27.98;17.52;;;;;;;;;;5051011;28;20404;-59
2021/05/19 00:23:13;;;;;;;31.17;19.48;;;;;;;;;;5067700;28;20025;-60
2021/05/19 00:25:39;;;;;;;32.42;20.38;;;;;;;;;;5051556;28;20054;-60
2021/05/19 00:28:05;;;;;;;34.47;19.98;;;;;;;;;;5051280;28;20480;-61
2021/05/19 00:30:35;;;;;;;31.35;19.27;;;;;;;;;;5050825;28;20017;-61
2021/05/19 00:33:01;;;;;;;32.08;18.83;;;;;;;;;;5051058;28;20024;-60
2021/05/19 00:35:27;;;;;;;32.13;20.27;;;;;;;;;;5051184;28;20079;-60
2021/05/19 00:37:53;;;;;;;32.10;19.80;;;;;;;;;;5051027;28;20056;-61
2021/05/19 00:40:19;;;;;;;32.97;19.80;;;;;;;;;;5065655;28;20029;-61
2021/05/19 00:42:45;;;;;;;31.85;20.90;;;;;;;;;;5066634;28;20025;-61
2021/05/19 00:45:12;;;;;;;35.20;22.00;;;;;;;;;;5066609;28;20025;-62
2021/05/19 00:47:39;;;;;;;35.67;21.15;;;;;;;;;;5066511;28;20039;-62
2021/05/19 00:50:07;;;;;;;34.85;21.42;;;;;;;;;;5050136;28;20029;-60
2021/05/19 00:52:33;;;;;;;36.33;22.20;;;;;;;;;;5049834;28;20119;-61
2021/05/19 00:54:59;;;;;;;34.83;21.05;;;;;;;;;;5065911;28;20033;-61
2021/05/19 00:57:25;;;;;;;38.97;22.30;;;;;;;;;;5050886;28;20021;-62
2021/05/19 00:59:51;;;;;;;35.97;23.85;;;;;;;;;;5050044;28;20070;-61
2021/05/19 01:02:17;;;;;;;36.75;22.30;;;;;;;;;;5050898;28;20029;-59
2021/05/19 01:04:44;;;;;;;37.35;22.75;;;;;;;;;;5066615;28;20431;-62
2021/05/19 01:07:27;;;;;;;36.72;23.35;;;;;;;;;;5066418;28;20041;-61
2021/05/19 01:09:53;;;;;;;38.45;22.85;;;;;;;;;;5050467;28;20476;-62
2021/05/19 01:12:21;;;;;;;41.58;24.05;;;;;;;;;;5051330;28;20029;-61
2021/05/19 01:14:47;;;;;;;38.10;23.23;;;;;;;;;;5050792;28;20464;-61
2021/05/19 01:17:14;;;;;;;40.20;24.20;;;;;;;;;;5050718;28;20025;-62
2021/05/19 01:19:42;;;;;;;39.25;23.05;;;;;;;;;;5049884;28;20033;-61
2021/05/19 01:22:20;;;;;;;36.70;22.88;;;;;;;;;;5050552;28;20032;-61
2021/05/19 01:24:47;;;;;;;42.33;24.70;;;;;;;;;;5050702;28;20024;-61
2021/05/19 01:27:13;;;;;;;41.40;26.30;;;;;;;;;;5050793;28;20087;-59
2021/05/19 01:29:39;;;;;;;38.05;23.90;;;;;;;;;;5049868;28;20029;-62
2021/05/19 01:32:05;;;;;;;36.55;24.30;;;;;;;;;;5050407;28;20450;-61
2021/05/19 01:34:31;;;;;;;40.80;26.95;;;;;;;;;;5050342;28;20079;-61
2021/05/19 01:36:57;;;;;;;37.22;22.80;;;;;;;;;;5050399;28;20110;-62
2021/05/19 01:39:23;;;;;;;38.35;24.33;;;;;;;;;;5064977;28;20401;-60
2021/05/19 01:41:50;;;;;;;41.22;25.15;;;;;;;;;;5050375;28;20029;-61
2021/05/19 01:44:17;;;;;;;39.63;24.55;;;;;;;;;;5065913;28;20112;-60
2021/05/19 01:46:44;;;;;;;40.88;24.38;;;;;;;;;;5065606;28;20036;-61
2021/05/19 01:49:11;;;;;;;41.80;26.00;;;;;;;;;;5049558;28;20029;-60
2021/05/19 01:51:37;;;;;;;41.33;25.92;;;;;;;;;;5049987;28;20032;-62
2021/05/19 01:54:04;;;;;;;41.08;24.98;;;;;;;;;;5050274;28;20052;-63
2021/05/19 01:56:30;;;;;;;44.03;25.10;;;;;;;;;;5050171;28;20032;-62
2021/05/19 01:58:57;;;;;;;40.67;25.10;;;;;;;;;;5050301;28;20383;-61
2021/05/19 02:01:24;;;;;;;41.03;25.38;;;;;;;;;;5050480;28;20048;-62
2021/05/19 02:03:50;;;;;;;37.38;23.67;;;;;;;;;;5065802;28;20503;-62
2021/05/19 02:06:16;;;;;;;38.70;23.80;;;;;;;;;;5051328;28;20036;-62
2021/05/19 02:08:42;;;;;;;39.20;24.48;;;;;;;;;;5068546;28;20405;-62
2021/05/19 02:11:08;;;;;;;35.67;23.17;;;;;;;;;;5053800;28;20029;-62
2021/05/19 02:13:34;;;;;;;36.53;22.80;;;;;;;;;;5069313;28;20029;-62
2021/05/19 02:16:00;;;;;;;39.45;25.38;;;;;;;;;;5053951;28;20530;-62
2021/05/19 02:18:26;;;;;;;36.03;23.20;;;;;;;;;;5053824;28;20041;-62
2021/05/19 02:20:52;;;;;;;38.38;23.60;;;;;;;;;;5052957;28;20021;-62
2021/05/19 02:23:18;;;;;;;37.15;23.50;;;;;;;;;;5069126;28;20060;-62
2021/05/19 02:25:44;;;;;;;39.00;23.75;;;;;;;;;;5068939;28;20068;-59
2021/05/19 02:28:10;;;;;;;38.90;25.27;;;;;;;;;;5068914;28;20028;-62
2021/05/19 02:30:36;;;;;;;42.33;24.50;;;;;;;;;;5068016;28;20021;-61
2021/05/19 02:33:06;;;;;;;39.72;24.38;;;;;;;;;;5068967;28;20116;-62
2021/05/19 02:35:32;;;;;;;40.65;25.38;;;;;;;;;;5068879;28;20018;-62
2021/05/19 02:37:58;;;;;;;40.33;25.67;;;;;;;;;;5068976;28;20025;-61
2021/05/19 02:40:24;;;;;;;42.33;26.70;;;;;;;;;;5067938;28;20072;-62
2021/05/19 02:42:49;;;;;;;43.10;25.13;;;;;;;;;;5068734;28;20025;-62
2021/05/19 02:45:16;;;;;;;40.80;26.17;;;;;;;;;;5053473;28;20032;-62
2021/05/19 02:47:42;;;;;;;43.65;25.30;;;;;;;;;;5068625;28;20028;-62
2021/05/19 02:50:08;;;;;;;42.22;25.77;;;14.00;99.90;;;;;;5052239;28;20037;-61
2021/05/19 02:52:34;;;;;;;38.97;24.05;;;6.70;99.90;;;;;;5053098;28;20021;-61
2021/05/19 02:55:00;;;;;;;39.03;25.00;;;6.50;99.90;;;;;;5053402;28;20021;-62
2021/05/19 02:57:25;;;;;;;38.35;24.83;;;6.50;99.90;;;;;;5053112;28;20064;-62
2021/05/19 02:59:51;;;;;;;35.60;23.48;;;6.50;99.90;;;;;;5067649;28;20079;-60
2021/05/19 03:02:17;;;;;;;41.85;25.17;;;6.40;99.90;;;;;;5068227;28;20039;-62
2021/05/19 03:04:42;;;;;;;40.60;24.33;;;6.50;99.90;;;;;;5052995;28;20024;-62
2021/05/19 03:07:08;;;;;;;40.38;25.35;;;6.40;99.90;;;;;;5052951;28;20397;-61
2021/05/19 03:09:33;;;;;;;41.80;26.75;;;6.60;99.90;;;;;;5067312;28;20107;-62
2021/05/19 03:11:59;;;;;;;42.35;26.65;;;6.70;99.90;;;;;;5052836;28;20315;-63
2021/05/19 03:14:25;;;;;;;45.53;28.40;;;6.70;99.90;;;;;;5068103;28;20021;-62
2021/05/19 03:16:50;;;;;;;43.47;26.48;;;6.70;99.90;;;;;;5067941;28;20071;-62
2021/05/19 03:19:16;;;;;;;43.05;27.45;;;6.60;99.90;;;;;;5051976;28;20025;-61
2021/05/19 03:21:42;;;;;;;40.35;27.25;;;6.60;99.90;;;;;;5067933;28;20025;-61
2021/05/19 03:24:08;;;;;;;41.25;26.45;;;6.60;99.90;;;;;;5052397;28;20122;-64
2021/05/19 03:26:34;;;;;;;42.72;27.40;;;6.70;99.90;;;;;;5052417;28;20045;-61
2021/05/19 03:29:00;;;;;;;43.60;26.98;;;6.60;99.90;;;;;;5051694;28;20028;-61
2021/05/19 03:31:25;;;;;;;41.13;26.45;;;6.50;99.90;;;;;;5051955;28;20029;-61
2021/05/19 03:33:51;;;;;;;43.58;27.13;;;6.50;99.90;;;;;;5067628;28;20017;-62
2021/05/19 03:36:16;;;;;;;40.90;26.70;;;6.50;99.90;;;;;;5052010;28;20028;-62
2021/05/19 03:38:42;;;;;;;41.97;26.95;;;6.50;99.90;;;;;;5066724;28;20078;-62
2021/05/19 03:41:08;;;;;;;41.47;27.35;;;6.50;99.90;;;;;;5051795;28;20087;-64
2021/05/19 03:43:36;;;;;;;43.78;27.30;;;6.50;99.90;;;;;;5052259;28;20511;-62
2021/05/19 03:46:02;;;;;;;43.22;26.70;;;6.60;99.90;;;;;;5067697;28;20036;-62
2021/05/19 03:48:28;;;;;;;45.33;26.60;;;6.60;99.90;;;;;;5051872;28;20405;-63
2021/05/19 03:50:53;;;;;;;43.15;27.48;;;6.60;99.90;;;;;;5051219;28;20449;-62
2021/05/19 03:53:19;;;;;;;40.00;27.15;;;6.60;99.90;;;;;;5051944;28;20032;-62
2021/05/19 03:55:45;;;;;;;43.40;27.27;;;6.60;99.90;;;;;;5051974;28;20036;-62
2021/05/19 03:58:12;;;;;;;42.22;27.60;;;6.60;99.90;;;;;;5051638;28;20098;-62
2021/05/19 04:00:39;;;;;;;44.28;27.40;;;6.70;99.90;;;;;;5050610;28;20021;-62
2021/05/19 04:03:05;;;;;;;43.03;28.55;;;6.70;99.90;;;;;;5051777;28;20021;-61
2021/05/19 04:05:35;;;;;;;44.65;26.88;;;6.70;99.90;;;;;;5067801;28;20025;-61
2021/05/19 04:08:01;;;;;;;43.63;28.83;;;6.70;99.90;;;;;;5052804;28;20104;-62
2021/05/19 04:10:27;;;;;;;44.00;29.15;;;6.70;99.90;;;;;;5051172;28;20032;-62
2021/05/19 04:12:53;;;;;;;45.13;27.23;;;6.90;99.90;;;;;;5051944;28;20023;-61
2021/05/19 04:15:21;;;;;;;42.80;27.70;;;7.00;99.90;;;;;;5051643;28;20174;-62
2021/05/19 04:17:47;;;;;;;42.97;27.33;;;7.00;99.90;;;;;;5066859;28;20050;-61
2021/05/19 04:20:13;;;;;;;38.75;26.45;;;7.10;99.90;;;;;;5050870;28;20029;-61
2021/05/19 04:22:39;;;;;;;40.55;25.98;;;7.10;99.90;;;;;;5051318;28;20062;-61
2021/05/19 04:25:06;;;;;;;39.58;25.13;;;7.10;99.90;;;;;;5066961;28;20435;-61
2021/05/19 04:27:33;;;;;;;41.78;26.17;;;7.10;99.90;;;;;;5051226;28;20052;-62
2021/05/19 04:29:59;;;;;;;42.97;28.10;;;7.20;99.90;;;;;;5050006;28;20373;-62
2021/05/19 04:32:25;;;;;;;40.00;26.52;;;7.20;99.90;;;;;;5051521;28;20082;-62
2021/05/19 04:34:51;;;;;;;41.08;25.85;;;7.20;99.90;;;;;;5066847;28;20051;-62
2021/05/19 04:37:16;;;;;;;40.72;26.35;;;7.20;99.90;;;;;;5051451;28;20025;-59
2021/05/19 04:39:42;;;;;;;36.85;25.13;;;7.20;99.90;;;;;;5050439;28;20104;-61
2021/05/19 04:42:08;;;;;;;43.17;28.55;;;;;;;;;;5066134;28;20154;-62
2021/05/19 04:44:34;;;;;;;39.28;27.15;;;;;;;;;;5050601;28;20032;-61
2021/05/19 04:47:00;;;;;;;40.13;27.45;;;;;;;;;;5050829;28;20052;-61
2021/05/19 04:49:27;;;;;;;38.53;26.85;;;;;;;;;;5049921;28;20543;-62
2021/05/19 04:51:52;;;;;;;44.65;28.60;;;;;;;;;;5050720;28;20539;-61
2021/05/19 04:54:19;;;;;;;41.45;27.75;;;;;;;;;;5050517;28;20031;-62
2021/05/19 04:56:45;;;;;;;39.00;26.90;;;;;;;;;;5050502;28;20029;-62
2021/05/19 04:59:11;;;;;;;36.25;23.95;;;;;;;;;;5065901;28;20029;-61
2021/05/19 05:01:37;;;;;;;39.75;27.42;;;;;;;;;;5066592;28;20132;-62
2021/05/19 05:04:03;;;;;;;36.90;23.75;;;;;;;;;;5067339;28;20028;-59
2021/05/19 05:06:29;;;;;;;35.17;23.75;;;;;;;;;;5050810;28;20063;-62
2021/05/19 05:08:55;;;;;;;33.00;23.17;;;;;;;;;;5064813;28;20036;-62
2021/05/19 05:11:21;;;;;;;37.33;23.90;;;;;;;;;;5065607;28;20021;-63
2021/05/19 05:13:47;;;;;;;35.45;23.75;;;;;;;;;;5050363;28;20037;-60
2021/05/19 05:16:14;;;;;;;36.25;23.05;;;;;;;;;;5050422;28;20025;-60
2021/05/19 05:18:41;;;;;;;40.13;23.60;;;;;;;;;;5049471;28;20028;-62
2021/05/19 05:21:08;;;;;;;33.78;22.17;;;;;;;;;;5050025;28;20034;-62
2021/05/19 05:23:34;;;;;;;35.60;22.00;;;;;;;;;;5050117;28;20024;-61
2021/05/19 05:26:01;;;;;;;35.25;20.77;;;;;;;;;;5050089;28;20477;-61
2021/05/19 05:28:27;;;;;;;30.58;20.27;;;;;;;;;;5049778;28;20032;-62
2021/05/19 05:30:53;;;;;;;33.22;21.08;;;;;;;;;;5064684;28;20027;-62
2021/05/19 05:33:19;;;;;;;33.33;20.75;;;;;;;;;;5050015;28;20043;-62
2021/05/19 05:35:46;;;;;;;31.70;21.25;;;;;;;;;;5049881;28;20025;-61
2021/05/19 05:38:12;;;;;;;29.40;18.35;;;;;;;;;;5050133;28;20138;-61
2021/05/19 05:40:38;;;;;;;33.75;20.20;;;;;;;;;;5066331;28;20561;-61
2021/05/19 05:43:04;;;;;;;31.58;18.52;;;;;;;;;;5053816;28;20216;-62
2021/05/19 05:45:30;;;;;;;28.70;17.30;;;;;;;;;;5053906;28;20027;-62
2021/05/19 05:47:57;;;;;;;27.63;17.38;;;;;;;;;;5053625;28;20040;-61
2021/05/19 05:50:23;;;;;;;28.25;17.13;;;;;;;;;;5068339;22;20049;-58
2021/05/19 05:52:49;;;;;;;29.02;16.33;;;;;;;;;;5054594;28;20029;-62
2021/05/19 05:55:15;;;;;;;28.77;18.98;;;;;;;;;;5054667;28;20046;-64
2021/05/19 05:57:41;;;;;;;25.23;16.48;;;7.30;99.90;;;;;;5053518;28;20155;-60
2021/05/19 06:00:09;;;;;;;25.75;15.95;;;10.10;99.90;;;;;;5051427;28;20107;-62
2021/05/19 06:02:34;;;;;;;25.98;17.00;;;10.00;99.90;;;;;;5053175;28;20428;-63
2021/05/19 06:05:00;;;;;;;27.70;15.55;;;10.00;99.90;;;;;;5052800;28;20036;-63
2021/05/19 06:07:26;;;;;;;26.00;16.08;;;10.10;99.90;;;;;;5047093;28;20030;-64
2021/05/19 06:09:52;;;;;;;26.77;15.93;;;10.20;99.90;;;;;;5033730;28;20026;-61
2021/05/19 06:12:19;;;;;;;26.25;15.45;;;10.40;99.90;;;;;;5034888;28;20105;-60
2021/05/19 06:14:44;;;;;;;26.30;15.10;;;10.40;99.90;;;;;;5034748;28;20081;-62
2021/05/19 06:17:12;;;;;;;27.08;15.60;;;10.50;99.90;;;;;;5050566;28;20539;-62
2021/05/19 06:19:38;;;;;;;26.70;15.68;;;10.60;99.90;;;;;;5053674;28;20032;-63
2021/05/19 06:22:03;;;;;;;28.02;16.83;;;10.60;99.90;;;;;;5054146;28;20029;-63
2021/05/19 06:24:29;;;;;;;26.25;14.07;;;10.80;99.90;;;;;;5053964;28;20031;-62
2021/05/19 06:26:54;;;;;;;23.45;13.55;;;10.80;99.90;;;;;;5054305;28;20063;-62
2021/05/19 06:29:21;;;;;;;24.67;12.93;;;10.90;99.90;;;;;;5051954;28;20021;-63
2021/05/19 06:31:46;;;;;;;26.70;13.50;;;11.00;99.90;;;;;;5054274;28;20048;-63
2021/05/19 06:34:12;;;;;;;22.65;14.15;;;11.10;99.90;;;;;;5037083;28;20445;-63
2021/05/19 06:36:41;;;;;;;23.52;12.32;;;11.10;99.90;;;;;;5034269;28;20385;-63
2021/05/19 06:39:07;;;;;;;21.67;12.25;;;11.10;99.90;;;;;;5033471;28;20026;-63
2021/05/19 06:41:32;;;;;;;22.70;12.95;;;11.10;99.90;;;;;;5033675;28;20103;-63
2021/05/19 06:43:58;;;;;;;23.73;12.90;;;11.10;99.90;;;;;;5032516;28;20033;-63
2021/05/19 06:46:25;;;;;;;21.70;12.65;;;11.20;99.90;;;;;;5032304;28;20040;-62
2021/05/19 06:48:51;;;;;;;23.50;11.85;;;11.30;99.90;;;;;;5033024;28;20025;-62
2021/05/19 06:51:17;;;;;;;23.55;14.07;;;11.40;99.90;;;;;;5033366;28;20053;-63
2021/05/19 06:53:42;;;;;;;23.63;12.40;;;11.30;99.90;;;;;;5033377;28;20047;-63
2021/05/19 06:56:08;;;;;;;23.67;13.73;;;11.50;99.90;;;;;;5034056;28;20052;-63
2021/05/19 06:58:34;;;;;;;23.48;13.93;;;11.50;99.90;;;;;;5032531;28;20485;-63
2021/05/19 07:01:00;;;;;;;24.67;14.25;;;11.60;99.90;;;;;;5048724;28;20036;-62
2021/05/19 07:03:25;;;;;;;25.10;14.70;;;11.60;99.90;;;;;;5054177;28;20036;-64
2021/05/19 07:05:51;;;;;;;24.42;13.15;;;11.70;99.90;;;;;;5054228;28;20029;-64
2021/05/19 07:08:19;;;;;;;23.55;13.75;;;11.90;99.90;;;;;;5053330;28;20021;-63
2021/05/19 07:10:45;;;;;;;21.35;12.63;;;;;;;;;;5053124;28;20036;-63
2021/05/19 07:13:11;;;;;;;23.13;12.05;;;;;;;;;;5053351;28;20029;-63
2021/05/19 07:15:39;;;;;;;22.83;12.27;;;;;;;;;;5053338;28;20029;-61
2021/05/19 07:18:06;;;;;;;19.92;11.40;;;;;;;;;;5053627;28;20025;-63
2021/05/19 07:20:32;;;;;;;23.40;12.40;;;;;;;;;;5053136;28;20393;-64
2021/05/19 07:22:58;;;;;;;21.45;10.50;;;;;;;;;;5053050;28;20042;-64
2021/05/19 07:25:24;;;;;;;23.75;11.73;;;;;;;;;;5052963;28;20029;-64
2021/05/19 07:27:50;;;;;;;22.15;10.93;;;;;;;;;;5052578;28;20025;-63
2021/05/19 07:30:16;;;;;;;20.38;10.18;;;;;;;;;;5050769;28;20021;-64
2021/05/19 07:32:42;;;;;;;22.45;10.00;;;;;;;;;;5052869;28;20607;-63
2021/05/19 07:35:09;;;;;;;22.25;10.77;;;;;;;;;;5052829;28;20045;-58
2021/05/19 07:37:35;;;;;;;20.05;10.45;;;;;;;;;;5052544;28;20024;-60
2021/05/19 07:40:01;;;;;;;21.20;10.98;;;;;;;;;;5051999;28;20029;-61
2021/05/19 07:42:27;;;;;;;22.75;11.30;;;;;;;;;;5052766;28;20059;-56
2021/05/19 07:44:53;;;;;;;22.25;10.57;;;;;;;;;;5052427;28;20060;-58
2021/05/19 07:47:19;;;;;;;21.70;11.70;;;;;;;;;;5052449;28;20037;-57
2021/05/19 07:49:45;;;;;;;24.52;11.98;;;;;;;;;;5051887;28;20029;-57
2021/05/19 07:52:11;;;;;;;23.50;11.75;;;;;;;;;;5050882;28;20646;-57
2021/05/19 07:54:37;;;;;;;23.60;10.98;;;;;;;;;;5053112;28;20025;-56
2021/05/19 07:57:18;;;;;;;23.65;12.85;;;;;;;;;;5052808;28;20039;-57
2021/05/19 07:59:46;;;;;;;23.38;12.05;;;;;;;;;;5051612;28;20051;-55
2021/05/19 08:02:14;;;;;;;21.42;11.18;;;;;;;;;;5051921;28;20033;-52
2021/05/19 08:04:40;;;;;;;23.05;11.43;;;;;;;;;;5050987;28;20029;-56
2021/05/19 08:07:07;;;;;;;23.15;12.18;;;;;;;;;;5052115;28;20099;-54
2021/05/19 08:09:34;;;;;;;23.98;12.68;;;;;;;;;;5051639;28;20032;-58
2021/05/19 08:12:00;;;;;;;22.35;11.80;;;;;;;;;;5052167;28;20025;-58
2021/05/19 08:14:27;;;;;;;24.48;11.95;;;;;;;;;;5050695;28;20048;-55
2021/05/19 08:16:53;;;;;;;24.70;12.25;;;;;;;;;;5052201;28;20029;-59
2021/05/19 08:19:20;;;;;;;22.98;11.52;;;;;;;;;;5051347;28;20029;-57
2021/05/19 08:21:46;;;;;;;23.60;12.60;;;;;;;;;;5052078;28;20029;-57
2021/05/19 08:24:18;;;;;;;24.70;13.85;;;;;;;;;;5068353;28;20366;-56
2021/05/19 08:26:44;;;;;;;24.58;12.70;;;;;;;;;;5068749;28;20451;-59
2021/05/19 08:29:10;;;;;;;24.45;13.80;;;;;;;;;;5066297;28;20405;-59
2021/05/19 08:31:36;;;;;;;23.35;12.68;;;;;;;;;;5068016;28;20044;-59
2021/05/19 08:34:02;;;;;;;27.75;13.50;;;;;;;;;;5068570;28;20029;-59
2021/05/19 08:36:28;;;;;;;22.70;12.35;;;;;;;;;;5068339;28;20497;-57
2021/05/19 08:38:54;;;;;;;26.95;14.07;;;;;;;;;;5067774;28;20099;-58
2021/05/19 08:41:21;;;;;;;25.77;14.10;;;;;;;;;;5067548;28;20021;-56
2021/05/19 08:43:47;;;;;;;27.75;16.60;;;;;;;;;;5056057;28;20032;-58
2021/05/19 08:46:13;;;;;;;28.90;15.60;;;;;;;;;;5047870;28;20017;-58
2021/05/19 08:48:41;;;;;;;28.95;14.90;;;;;;;;;;5047469;28;20103;-59
2021/05/19 08:51:08;;;;;;;23.95;13.82;;;;;;;;;;5048087;28;20361;-60
2021/05/19 08:53:34;;;;;;;23.30;12.90;;;;;;;;;;5046026;28;20029;-60
2021/05/19 08:56:05;;;;;;;22.23;11.95;;;;;;;;;;5048155;28;20044;-58
2021/05/19 08:58:31;;;;;;;24.90;12.93;;;;;;;;;;5045441;28;20307;-59
2021/05/19 09:00:57;;;;;;;25.80;13.48;;;;;;;;;;5053839;28;20100;-59
2021/05/19 09:03:23;;;;;;;25.33;13.65;;;;;;;;;;5067614;28;20200;-58
2021/05/19 09:05:49;;;;;;;23.65;13.23;;;;;;;;;;5067340;28;20393;-59
2021/05/19 09:08:16;;;;;;;24.30;12.15;;;;;;;;;;5066514;28;20388;-59
2021/05/19 09:10:43;;;;;;;21.52;11.57;;;;;;;;;;5065512;28;20033;-59
2021/05/19 09:13:28;;;;;;;24.30;11.57;;;;;;;;;;5067516;28;20082;-58
2021/05/19 09:15:54;;;;;;;25.70;12.43;;;;;;;;;;5067631;28;20025;-56
2021/05/19 09:18:20;;;;;;;26.17;14.05;;;;;;;;;;5067869;28;20388;-56
2021/05/19 09:20:46;;;;;;;23.95;13.98;;;;;;;;;;5066828;28;20047;-54
2021/05/19 09:23:31;;;;;;;24.88;14.52;;;;;;;;;;5066250;28;20412;-57
2021/05/19 09:26:04;;;;;;;25.70;13.27;;;;;;;;;;5065966;28;20378;-56
2021/05/19 09:28:31;;;;;;;22.65;13.60;;;;;;;;;;5066109;28;20078;-57
2021/05/19 09:30:57;;;;;;;26.00;14.95;;;;;;;;;;5067643;28;20028;-58
2021/05/19 09:33:24;;;;;;;24.58;15.68;;;;;;;;;;5067488;28;20025;-59
2021/05/19 09:36:09;;;;;;;27.63;16.83;;;;;;;;;;5052303;28;20026;-56
2021/05/19 09:38:35;;;;;;;26.77;16.48;;;;;;;;;;5053012;28;20484;-59
2021/05/19 09:41:14;;;;;;;28.63;17.70;;;;;;;;;;5053169;28;20041;-59
2021/05/19 09:43:40;;;;;;;24.83;15.43;;;;;;;;;;5053864;28;20025;-59
2021/05/19 09:46:13;;;;;;;24.65;15.57;;;;;;;;;;5052920;28;20033;-58
2021/05/19 09:48:39;;;;;;;26.65;15.88;;;12.10;99.90;;;;;;5053311;28;20029;-59
2021/05/19 09:51:05;;;;;;;27.73;15.43;;;15.90;99.90;;;;;;5054254;28;20413;-61
2021/05/19 09:53:32;;;;;;;26.77;14.45;;;;;;;;;;5052061;28;20036;-58
2021/05/19 09:55:58;;;;;;;24.90;14.20;;;;;;;;;;5054266;28;20040;-59
2021/05/19 09:58:30;;;;;;;24.70;14.73;;;;;;;;;;5053419;28;20065;-57
2021/05/19 10:00:57;;;;;;;24.15;14.93;;;;;;;;;;5052134;28;20032;-55
2021/05/19 10:03:23;;;;;;;26.20;15.88;;;;;;;;;;5052322;28;20032;-58
2021/05/19 10:06:06;;;;;;;29.35;14.52;;;;;;;;;;5053733;28;20017;-60
2021/05/19 10:08:32;;;;;;;23.95;16.30;;;;;;;;;;5053779;28;20033;-60
2021/05/19 10:11:03;;;;;;;25.02;15.93;;;;;;;;;;5052783;28;20219;-60
2021/05/19 10:13:30;;;;;;;26.45;16.05;;;;;;;;;;5053957;28;20033;-57
2021/05/19 10:15:57;;;;;;;26.67;15.85;;;;;;;;;;5052290;28;20025;-60
2021/05/19 10:18:25;;;;;;;26.45;15.52;;;;;;;;;;5052861;28;20021;-59
2021/05/19 10:20:54;;;;;;;27.63;14.98;;;;;;;;;;5052978;28;20417;-59
2021/05/19 10:23:27;;;;;;;24.80;15.15;;;;;;;;;;5053072;28;20370;-60
2021/05/19 10:26:05;;;;;;;24.48;15.25;;;;;;;;;;5053279;28;20429;-60
2021/05/19 10:28:38;;;;;;;23.70;13.60;;;;;;;;;;5052887;28;20365;-60
2021/05/19 10:31:21;;;;;;;24.98;14.32;;;;;;;;;;5052695;28;20100;-60
2021/05/19 10:33:47;;;;;;;26.23;13.95;;;;;;;;;;5053289;28;20093;-60
2021/05/19 10:36:26;;;;;;;22.48;12.80;;;;;;;;;;5051384;28;20190;-60
2021/05/19 10:39:10;;;;;;;21.42;12.07;;;;;;;;;;5052340;28;20480;-58
2021/05/19 10:41:40;;;;;;;19.88;11.98;;;;;;;;;;5052911;28;20055;-60
2021/05/19 10:44:08;;;;;;;22.73;12.15;;;;;;;;;;5053153;28;20021;-56
2021/05/19 10:46:47;;;;;;;23.42;12.95;;;;;;;;;;5052176;28;20112;-58
2021/05/19 10:49:16;;;;;;;19.75;11.13;;;;;;;;;;5052309;28;20025;-60
2021/05/19 10:51:51;;;;;;;19.77;11.63;;;;;;;;;;5052580;28;20489;-60
2021/05/19 10:57:30;;;;;;;20.02;10.55;;;15.70;99.90;;;;;;5052589;28;20075;-60
2021/05/19 11:00:25;;;;;;;21.38;11.65;;;;;;;;;;5051787;28;20469;-60
2021/05/19 11:02:58;;;;;;;20.50;12.00;;;;;;;;;;5051064;28;20515;-60
2021/05/19 11:05:25;;;;;;;19.52;12.35;;;;;;;;;;5052329;28;20067;-60
2021/05/19 11:08:13;;;;;;;24.20;12.93;;;;;;;;;;5051113;28;20024;-57
2021/05/19 11:10:39;;;;;;;22.33;11.10;;;;;;;;;;5051536;28;20021;-61
2021/05/19 11:13:06;;;;;;;18.75;11.27;;;;;;;;;;5052599;28;20094;-60
2021/05/19 11:16:23;;;;;;;22.33;11.98;;;;;;;;;;5049625;28;20577;-58
2021/05/19 11:21:02;;;;;;;19.95;11.65;;;;;;;;;;5051368;28;20118;-59
2021/05/19 11:23:28;;;;;;;20.40;11.68;;;;;;;;;;5051701;28;20029;-60
2021/05/19 11:26:12;;;;;;;20.75;12.27;;;;;;;;;;4875372;28;10001004;-60
2021/05/19 11:28:42;;;;;;;18.77;9.95;;;;;;;;;;5038723;28;20231;-60
2021/05/19 11:31:12;;;;;;;17.42;9.43;;;;;;;;;;5036889;28;20065;-60
2021/05/19 11:33:51;;;;;;;21.20;9.43;;;;;;;;;;5037665;28;20021;-57
2021/05/19 11:36:36;;;;;;;17.95;9.15;;;;;;;;;;5038524;28;20113;-60
2021/05/19 11:39:26;;;;;;;21.10;11.02;;;;;;;;;;5041534;28;20060;-60
2021/05/19 11:41:53;;;;;;;20.90;10.45;;;;;;;;;;5038709;28;20087;-58
2021/05/19 11:44:30;;;;;;;24.55;10.63;;;;;;;;;;5035232;28;20040;-60
2021/05/19 11:46:57;;;;;;;20.92;9.98;;;;;;;;;;5036202;28;20021;-59
2021/05/19 11:49:23;;;;;;;17.42;9.32;;;;;;;;;;5038509;28;20795;-56
2021/05/19 11:51:49;;;;;;;16.48;8.25;;;;;;;;;;5036081;28;20108;-60
2021/05/19 11:54:15;;;;;;;16.75;8.63;;;;;;;;;;5037446;28;20032;-58
2021/05/19 11:56:45;;;;;;;17.10;7.65;;;;;;;;;;5038699;28;20469;-59
2021/05/19 11:59:20;;;;;;;15.65;7.80;;;;;;;;;;5039461;28;20057;-58
2021/05/19 12:01:56;;;;;;;21.10;8.15;;;;;;;;;;5040350;28;20113;-58
2021/05/19 12:04:22;;;;;;;17.42;8.70;;;;;;;;;;5029625;28;20485;-59
2021/05/19 12:06:49;;;;;;;18.85;9.68;;;;;;;;;;5027658;28;20079;-59
2021/05/19 12:09:17;;;;;;;21.15;9.93;;;;;;;;;;5031982;28;20025;-59
2021/05/19 12:11:45;;;;;;;20.08;11.10;;;;;;;;;;5038679;28;20063;-61
2021/05/19 12:14:11;;;;;;;20.88;10.23;;;;;;;;;;5039486;28;20064;-61
2021/05/19 12:16:44;;;;;;;19.48;10.15;;;;;;;;;;5041107;28;20551;-62
2021/05/19 12:19:17;;;;;;;19.30;9.90;;;;;;;;;;5038125;28;20104;-58
2021/05/19 12:21:52;;;;;;;18.83;9.88;;;;;;;;;;5040264;28;20520;-61
2021/05/19 12:24:19;;;;;;;19.85;10.75;;;;;;;;;;5040546;28;20036;-61
2021/05/19 12:26:46;;;;;;;22.37;10.77;;;;;;;;;;5039945;28;20047;-61
2021/05/19 12:29:31;;;;;;;19.95;9.43;;;;;;;;;;5041004;28;20033;-60
2021/05/19 12:32:09;;;;;;;20.35;10.20;;;;;;;;;;5039992;28;20028;-62
2021/05/19 12:34:35;;;;;;;19.33;10.50;;;;;;;;;;5048667;28;20021;-57
2021/05/19 12:37:01;;;;;;;20.15;10.27;;;;;;;;;;5049891;28;20037;-55
2021/05/19 12:39:28;;;;;;;17.60;9.57;;;;;;;;;;5050690;28;20496;-59
2021/05/19 12:41:57;;;;;;;16.80;8.40;;;;;;;;;;5050715;28;20485;-60
2021/05/19 12:44:33;;;;;;;19.15;9.18;;;;;;;;;;5050810;28;20056;-59
2021/05/19 12:47:05;;;;;;;19.80;9.93;;;;;;;;;;5050713;28;20381;-58
2021/05/19 12:49:32;;;;;;;17.52;7.22;;;;;;;;;;5037636;28;20025;-60
2021/05/19 12:51:59;;;;;;;16.73;6.80;;;;;;;;;;5033073;28;20351;-60
2021/05/19 12:54:31;;;;;;;16.40;7.25;;;;;;;;;;5033643;28;20500;-59
2021/05/19 12:57:04;;;;;;;16.92;6.55;;;;;;;;;;5031264;28;20107;-58
2021/05/19 12:59:50;;;;;;;16.02;6.07;;;;;;;;;;5030453;28;20032;-57
2021/05/19 13:02:16;;;;;;;21.00;7.38;;;;;;;;;;4697387;28;10000385;-60
2021/05/19 13:04:49;;;;;;;19.23;7.03;;;;;;;;;;5047719;28;20044;-58
2021/05/19 13:07:18;;;;;;;18.92;7.32;;;;;;;;;;5047395;28;20025;-60
2021/05/19 13:09:49;;;;;;;15.90;6.68;;;;;;;;;;5047286;28;20017;-58
2021/05/19 13:12:21;;;;;;;15.10;6.82;;;;;;;;;;5051355;28;20455;-58
2021/05/19 13:14:51;;;;;;;14.57;6.95;;;;;;;;;;5051182;28;20032;-60
2021/05/19 13:17:24;;;;;;;16.50;8.35;;;;;;;;;;5051567;28;20450;-55
2021/05/19 13:19:57;;;;;;;14.70;8.27;;;;;;;;;;5050502;28;20100;-57
2021/05/19 13:22:23;;;;;;;17.48;9.40;;;;;;;;;;5051254;28;20029;-58
2021/05/19 13:24:50;;;;;;;16.17;9.15;;;15.70;99.90;;;;;;5051104;28;20688;-58
2021/05/19 13:27:25;;;;;;;18.52;9.13;;;20.10;99.90;;;;;;5051394;28;20029;-60
2021/05/19 13:29:53;;;;;;;16.58;9.73;;;;;;;;;;5050435;28;20457;-58
2021/05/19 13:32:48;;;;;;;15.75;9.68;;;;;;;;;;5052182;28;20021;-60
2021/05/19 13:37:52;;;;;;;18.83;10.05;;;;;;;;;;4702301;28;9999647;-61
2021/05/19 13:40:18;;;;;;;16.08;9.23;;;;;;;;;;5049998;28;20029;-57
2021/05/19 13:42:44;;;;;;;16.05;9.45;;;;;;;;;;5050764;28;20033;-56
2021/05/19 13:45:11;;;;;;;16.42;9.32;;;;;;;;;;5051242;28;20118;-59
2021/05/19 13:47:38;;;;;;;17.55;9.00;;;;;;;;;;5049571;28;20021;-59
2021/05/19 13:50:07;;;;;;;16.70;9.50;;;;;;;;;;5049059;28;20037;-57
2021/05/19 13:52:33;;;;;;;16.65;9.07;;;;;;;;;;5050187;28;20047;-60
2021/05/19 13:54:59;;;;;;;27.05;8.07;;;;;;;;;;5050229;28;20481;-59
2021/05/19 13:57:25;;;;;;;16.23;7.57;;;;;;;;;;5050364;28;20033;-57
2021/05/19 13:59:51;;;;;;;15.32;7.57;;;;;;;;;;5049973;28;20044;-57
2021/05/19 14:02:17;;;;;;;16.85;7.50;;;;;;;;;;5049845;28;20029;-55
2021/05/19 14:04:43;;;;;;;15.40;6.40;;;;;;;;;;5050169;28;20029;-54